Time;durP1;ratioP1;P1;durP2;ratioP2;P2;SDS_P1;SDS_P2;PMS_P1;PMS_P2;Temp;Humidity;BMP_temperature;BMP_pressure;BME280_temperature;BME280_humidity;BME280_pressure;Samples;Min_cycle;Max_cycle;Signal;HPM_P1;HPM_P2
2022/03/22 00:00:23;;;;;;;8.13;4.50;;;18.00;50.50;;;;;;5106676;27;45325;-75
2022/03/22 00:02:50;;;;;;;7.55;4.35;;;18.00;50.70;;;;;;5105751;27;45222;-75
2022/03/22 00:05:17;;;;;;;6.63;4.38;;;18.10;50.60;;;;;;5109018;27;45350;-74
2022/03/22 00:07:44;;;;;;;5.97;4.10;;;18.10;50.70;;;;;;5109690;27;45313;-75
2022/03/22 00:10:13;;;;;;;6.75;4.53;;;18.10;50.70;;;;;;5105453;27;47952;-75
2022/03/22 00:12:40;;;;;;;9.48;5.15;;;18.10;50.50;;;;;;5104704;27;45522;-75
2022/03/22 00:15:09;;;;;;;6.28;4.38;;;18.00;50.40;;;;;;5106848;27;45290;-74
2022/03/22 00:17:37;;;;;;;6.25;4.50;;;18.00;50.70;;;;;;5107519;27;45350;-75
2022/03/22 00:20:05;;;;;;;7.45;4.53;;;18.00;50.50;;;;;;5107364;27;46701;-74
2022/03/22 00:22:31;;;;;;;6.53;4.38;;;18.00;50.60;;;;;;5107425;27;45382;-75
2022/03/22 00:24:58;;;;;;;5.43;4.40;;;18.00;50.40;;;;;;5108877;27;45223;-75
2022/03/22 00:27:26;;;;;;;6.18;4.32;;;18.00;50.60;;;;;;5095196;27;45311;-75
2022/03/22 00:29:53;;;;;;;7.03;4.78;;;18.00;50.50;;;;;;5100521;27;47369;-75
2022/03/22 00:32:20;;;;;;;7.05;4.38;;;18.00;50.60;;;;;;5086575;27;45211;-75
2022/03/22 00:34:46;;;;;;;5.88;4.25;;;18.00;50.60;;;;;;5101554;27;45179;-75
2022/03/22 00:37:15;;;;;;;6.68;4.43;;;18.00;50.50;;;;;;5108230;27;45405;-75
2022/03/22 00:39:43;;;;;;;6.35;4.38;;;17.90;50.10;;;;;;5107467;27;45368;-75
2022/03/22 00:42:10;;;;;;;6.45;4.35;;;18.00;50.50;;;;;;5107218;27;46361;-75
2022/03/22 00:44:39;;;;;;;6.00;4.47;;;18.00;50.40;;;;;;5108354;27;45264;-75
2022/03/22 00:47:07;;;;;;;5.75;4.13;;;18.00;51.60;;;;;;5107512;27;45120;-75
2022/03/22 00:49:34;;;;;;;6.32;4.45;;;18.00;50.10;;;;;;5106681;27;47443;-75
2022/03/22 00:52:04;;;;;;;6.55;4.57;;;18.10;50.30;;;;;;5107962;27;45457;-75
2022/03/22 00:54:31;;;;;;;6.05;4.07;;;18.00;50.20;;;;;;5107665;27;45364;-75
2022/03/22 00:56:58;;;;;;;5.82;4.28;;;18.00;50.20;;;;;;5107575;27;45445;-75
2022/03/22 01:02:10;;;;;;;7.65;4.57;;;18.00;50.00;;;;;;5105442;27;45211;-75
2022/03/22 01:04:37;;;;;;;6.72;4.50;;;18.00;50.00;;;;;;5107100;27;46347;-75
2022/03/22 01:07:05;;;;;;;6.97;4.68;;;18.00;50.10;;;;;;5108960;27;45415;-75
2022/03/22 01:09:32;;;;;;;6.05;4.65;;;18.00;50.00;;;;;;5099236;27;46273;-75
2022/03/22 01:11:58;;;;;;;8.00;4.50;;;18.00;49.90;;;;;;5107857;27;45268;-75
2022/03/22 01:14:28;;;;;;;6.38;4.25;;;18.00;50.00;;;;;;5106862;27;45223;-75
2022/03/22 01:16:55;;;;;;;6.60;4.18;;;18.00;50.10;;;;;;5106871;27;46279;-75
2022/03/22 01:19:23;;;;;;;6.68;4.40;;;18.00;50.10;;;;;;5105819;27;46611;-74
2022/03/22 01:21:51;;;;;;;6.20;4.32;;;17.90;49.90;;;;;;5108028;27;45300;-75
2022/03/22 01:24:18;;;;;;;6.57;4.55;;;18.00;49.90;;;;;;5108101;27;45421;-75
2022/03/22 01:26:45;;;;;;;6.15;4.57;;;17.90;49.70;;;;;;5107274;27;45234;-75
2022/03/22 01:29:14;;;;;;;6.50;4.20;;;18.00;49.70;;;;;;5106163;27;46558;-75
2022/03/22 01:31:41;;;;;;;6.40;4.72;;;17.90;49.80;;;;;;5105498;27;45105;-74
2022/03/22 01:34:08;;;;;;;7.85;4.28;;;18.00;49.60;;;;;;5105263;27;45426;-74
2022/03/22 01:36:36;;;;;;;5.97;3.95;;;18.00;49.60;;;;;;5103071;27;45228;-75
2022/03/22 01:39:04;;;;;;;7.40;4.22;;;18.00;49.40;;;;;;5107407;27;45238;-74
2022/03/22 01:41:31;;;;;;;7.38;4.40;;;18.00;49.40;;;;;;5106276;27;45524;-74
2022/03/22 01:43:58;;;;;;;7.13;4.78;;;18.00;49.20;;;;;;5108366;27;45207;-75
2022/03/22 01:46:25;;;;;;;6.25;4.32;;;18.00;49.10;;;;;;5111377;27;45126;-74
2022/03/22 01:48:53;;;;;;;6.00;4.10;;;18.00;49.00;;;;;;5108020;27;46357;-74
2022/03/22 01:51:22;;;;;;;6.90;4.30;;;18.00;48.80;;;;;;5111414;27;45211;-75
2022/03/22 01:53:51;;;;;;;6.05;4.38;;;18.00;48.60;;;;;;5110728;27;45315;-74
2022/03/22 01:56:18;;;;;;;5.78;4.38;;;18.00;48.80;;;;;;5110170;27;45700;-74
2022/03/22 01:58:45;;;;;;;6.20;4.25;;;18.00;48.50;;;;;;5108713;27;45169;-75
2022/03/22 02:06:45;;;;;;;6.13;3.92;;;18.00;49.10;;;;;;5110960;27;45442;-74
2022/03/22 02:09:14;;;;;;;6.47;4.38;;;17.90;48.80;;;;;;5110218;27;45308;-74
2022/03/22 02:11:41;;;;;;;6.63;4.32;;;17.90;48.50;;;;;;5110953;27;45177;-74
2022/03/22 02:14:09;;;;;;;7.07;4.63;;;17.90;48.30;;;;;;5111210;27;45271;-75
2022/03/22 02:16:36;;;;;;;6.55;4.75;;;18.00;48.30;;;;;;5107529;27;45300;-75
2022/03/22 02:19:03;;;;;;;5.97;3.78;;;17.90;48.40;;;;;;5110018;27;47404;-75
2022/03/22 02:21:32;;;;;;;6.43;4.22;;;17.90;48.30;;;;;;5109280;27;45623;-75
2022/03/22 02:24:00;;;;;;;5.97;4.18;;;17.90;48.40;;;;;;5111351;27;45204;-75
2022/03/22 02:26:27;;;;;;;6.97;4.45;;;18.00;48.30;;;;;;5110068;27;45298;-74
2022/03/22 02:28:55;;;;;;;6.43;4.28;;;18.00;48.40;;;;;;5109851;27;45266;-74
2022/03/22 02:31:22;;;;;;;6.88;4.05;;;18.00;48.40;;;;;;5102119;27;45151;-74
2022/03/22 02:33:49;;;;;;;6.38;4.38;;;18.00;48.40;;;;;;5109759;27;45214;-75
2022/03/22 02:36:16;;;;;;;6.45;4.47;;;18.00;47.80;;;;;;5109796;27;45483;-75
2022/03/22 02:38:43;;;;;;;5.57;4.05;;;18.00;48.40;;;;;;5107455;27;46614;-75
2022/03/22 02:41:16;;;;;;;6.15;4.60;;;18.00;48.00;;;;;;5108346;27;45693;-75
2022/03/22 02:43:44;;;;;;;7.40;4.85;;;18.00;47.50;;;;;;5108329;27;45280;-75
2022/03/22 02:46:11;;;;;;;6.22;4.57;;;18.00;47.70;;;;;;5107070;27;45100;-75
2022/03/22 02:48:38;;;;;;;6.07;4.35;;;18.00;48.00;;;;;;5108467;27;45186;-75
2022/03/22 02:51:05;;;;;;;6.20;4.30;;;18.00;48.10;;;;;;5107764;27;45357;-75
2022/03/22 02:53:32;;;;;;;6.82;4.65;;;17.90;47.90;;;;;;5108173;27;45300;-75
2022/03/22 02:55:58;;;;;;;6.80;4.97;;;18.00;49.20;;;;;;5106439;27;45528;-75
2022/03/22 02:58:27;;;;;;;7.25;4.63;;;17.90;47.60;;;;;;5108362;27;46291;-75
2022/03/22 03:00:54;;;;;;;6.38;4.10;;;17.90;48.10;;;;;;5106408;27;45663;-76
2022/03/22 03:03:21;;;;;;;6.40;4.50;;;17.90;48.10;;;;;;5106300;27;45354;-75
2022/03/22 03:05:49;;;;;;;6.30;4.80;;;17.90;47.60;;;;;;5108067;27;45179;-75
2022/03/22 03:08:15;;;;;;;7.38;4.30;;;17.90;47.50;;;;;;5108230;27;45254;-76
2022/03/22 03:10:42;;;;;;;7.28;5.43;;;17.90;47.60;;;;;;5106733;27;45485;-75
2022/03/22 03:13:09;;;;;;;9.05;4.95;;;18.00;47.20;;;;;;5107696;27;45216;-75
2022/03/22 03:15:38;;;;;;;6.03;4.68;;;18.00;47.00;;;;;;5109146;27;45226;-75
2022/03/22 03:18:06;;;;;;;6.20;4.43;;;17.90;48.40;;;;;;5107873;27;47837;-74
2022/03/22 03:20:33;;;;;;;6.85;4.95;;;18.00;46.70;;;;;;5105627;27;45199;-75
2022/03/22 03:22:59;;;;;;;6.50;4.70;;;18.00;47.00;;;;;;5108932;27;45196;-74
2022/03/22 03:25:26;;;;;;;7.43;5.30;;;18.00;47.00;;;;;;5108367;27;45189;-74
2022/03/22 03:27:53;;;;;;;6.85;4.75;;;18.00;47.40;;;;;;5106738;27;45475;-75
2022/03/22 03:30:20;;;;;;;6.15;4.25;;;18.00;47.50;;;;;;5107214;27;45181;-74
2022/03/22 03:32:48;;;;;;;6.00;4.70;;;18.00;47.70;;;;;;5108799;27;45391;-75
2022/03/22 03:35:15;;;;;;;6.33;4.60;;;18.00;47.70;;;;;;5070030;27;1078619;-75
2022/03/22 03:37:43;;;;;;;6.65;4.57;;;18.00;47.80;;;;;;5107972;27;46606;-75
2022/03/22 03:40:12;;;;;;;6.05;4.60;;;18.00;48.00;;;;;;5107034;27;45317;-74
2022/03/22 03:42:42;;;;;;;6.47;4.80;;;18.00;48.10;;;;;;5106527;27;45612;-75
2022/03/22 03:47:57;;;;;;;5.57;4.30;;;17.90;48.00;;;;;;5105497;27;45228;-75
2022/03/22 03:50:24;;;;;;;8.20;5.03;;;18.00;47.90;;;;;;5106821;27;46340;-75
2022/03/22 03:52:52;;;;;;;8.50;5.32;;;17.90;48.10;;;;;;5109464;27;45421;-75
2022/03/22 03:55:18;;;;;;;5.80;4.50;;;17.90;47.70;;;;;;5109582;27;45530;-75
2022/03/22 03:57:45;;;;;;;6.05;4.60;;;17.90;47.80;;;;;;5106057;27;45270;-75
2022/03/22 04:00:13;;;;;;;5.47;4.30;;;17.90;49.20;;;;;;5108552;27;45453;-75
2022/03/22 04:02:41;;;;;;;7.63;4.90;;;18.00;48.50;;;;;;5107071;27;45190;-74
2022/03/22 04:05:11;;;;;;;7.25;5.00;;;17.90;48.10;;;;;;5106467;27;45576;-75
2022/03/22 04:07:37;;;;;;;7.78;4.97;;;18.00;48.30;;;;;;5108429;27;47945;-75
2022/03/22 04:10:05;;;;;;;6.95;4.78;;;18.00;48.20;;;;;;5108747;27;45310;-74
2022/03/22 04:12:34;;;;;;;6.03;4.40;;;18.00;48.30;;;;;;5108172;27;45361;-74
2022/03/22 04:15:00;;;;;;;8.75;4.63;;;18.00;48.30;;;;;;5108532;27;45127;-74
2022/03/22 04:17:27;;;;;;;5.75;4.03;;;18.00;48.40;;;;;;5106212;27;46046;-74
2022/03/22 04:19:54;;;;;;;6.60;4.72;;;18.00;48.10;;;;;;5107915;27;45177;-74
2022/03/22 04:22:23;;;;;;;7.20;4.70;;;18.00;48.10;;;;;;5108932;27;45346;-74
2022/03/22 04:24:50;;;;;;;5.47;4.15;;;18.00;48.10;;;;;;5108772;27;45112;-73
2022/03/22 04:32:45;;;;;;;6.95;4.20;;;18.00;47.70;;;;;;5106571;27;45234;-74
2022/03/22 04:35:14;;;;;;;6.57;4.40;;;18.00;48.00;;;;;;5108854;27;45386;-75
2022/03/22 04:37:42;;;;;;;6.35;4.38;;;18.00;48.10;;;;;;5106019;27;47109;-75
2022/03/22 04:40:10;;;;;;;7.55;4.38;;;18.00;48.10;;;;;;5106618;27;45247;-75
2022/03/22 04:42:37;;;;;;;6.65;4.50;;;18.00;48.10;;;;;;5103166;27;45158;-75
2022/03/22 04:45:05;;;;;;;6.15;4.38;;;18.00;47.70;;;;;;5106968;27;45541;-75
2022/03/22 04:47:32;;;;;;;6.68;4.40;;;17.90;47.60;;;;;;5108146;27;47060;-74
2022/03/22 04:50:00;;;;;;;5.80;4.10;;;17.90;47.10;;;;;;5105793;27;45303;-75
2022/03/22 04:57:56;;;;;;;6.00;4.40;;;18.00;48.30;;;;;;5101060;27;45165;-75
2022/03/22 05:00:23;;;;;;;6.40;4.55;;;18.00;48.00;;;;;;5106501;27;45164;-75
2022/03/22 05:02:50;;;;;;;6.65;4.55;;;18.00;47.90;;;;;;5106246;27;46739;-75
2022/03/22 05:06:25;;;;;;;7.38;4.47;;;18.00;48.00;;;;;;5108585;27;45221;-74
2022/03/22 05:08:05;;;;;;;5.20;3.80;;;18.00;48.00;;;;;;5103449;27;46146;-75
2022/03/22 05:10:34;;;;;;;6.57;4.13;;;18.00;48.10;;;;;;5107160;27;45368;-74
2022/03/22 05:13:01;;;;;;;6.28;4.32;;;18.00;48.20;;;;;;5105521;27;45313;-75
2022/03/22 05:15:28;;;;;;;6.35;4.43;;;18.00;48.20;;;;;;5103636;27;45225;-75
2022/03/22 05:17:57;;;;;;;6.38;4.03;;;17.90;48.20;;;;;;5105822;27;45469;-75
2022/03/22 05:20:24;;;;;;;5.65;4.30;;;17.90;48.00;;;;;;5106745;27;45518;-74
2022/03/22 05:22:50;;;;;;;6.22;4.47;;;17.90;48.10;;;;;;5107152;27;45254;-75
2022/03/22 05:25:19;;;;;;;6.25;4.40;;;17.90;48.10;;;;;;5107529;27;45442;-75
2022/03/22 05:27:47;;;;;;;5.63;3.72;;;17.90;48.10;;;;;;5099264;27;46605;-75
2022/03/22 05:30:14;;;;;;;6.18;4.43;;;17.90;48.10;;;;;;5101388;27;45354;-75
2022/03/22 05:32:41;;;;;;;6.15;4.40;;;17.90;48.00;;;;;;5105410;27;45302;-74
2022/03/22 05:35:09;;;;;;;5.80;4.38;;;17.90;48.10;;;;;;5107400;27;45414;-74
2022/03/22 05:37:36;;;;;;;5.95;4.07;;;17.90;48.00;;;;;;5106698;27;45387;-74
2022/03/22 05:40:03;;;;;;;5.03;3.97;;;17.90;47.70;;;;;;5106393;27;45299;-74
2022/03/22 05:42:30;;;;;;;5.97;4.15;;;17.80;49.20;;;;;;5108005;27;45466;-75
2022/03/22 05:45:00;;;;;;;6.10;4.20;;;17.90;48.00;;;;;;5106677;27;45421;-74
2022/03/22 05:47:27;;;;;;;5.57;4.28;;;17.90;48.10;;;;;;5100543;27;45746;-76
2022/03/22 05:49:55;;;;;;;6.53;4.28;;;17.90;47.20;;;;;;5104127;27;45586;-77
2022/03/22 05:52:21;;;;;;;7.10;4.53;;;17.80;47.20;;;;;;5107506;27;45540;-74
2022/03/22 05:54:48;;;;;;;6.30;4.60;;;17.80;47.60;;;;;;5103530;27;45280;-77
2022/03/22 05:57:15;;;;;;;6.43;4.75;;;17.80;47.70;;;;;;5102884;27;48105;-77
2022/03/22 05:59:42;;;;;;;6.88;5.15;;;17.80;47.60;;;;;;5103467;27;45837;-75
2022/03/22 06:02:10;;;;;;;7.32;5.20;;;17.80;47.40;;;;;;5104147;27;45477;-77
2022/03/22 06:04:37;;;;;;;8.48;5.40;;;17.80;46.60;;;;;;5106749;27;45421;-77
2022/03/22 06:07:04;;;;;;;7.05;5.50;;;17.80;46.00;;;;;;5103152;27;45416;-75
2022/03/22 06:09:31;;;;;;;6.00;4.50;;;17.80;45.50;;;;;;5105950;27;45229;-75
2022/03/22 06:11:58;;;;;;;6.10;4.55;;;17.80;46.60;;;;;;5102202;27;45187;-75
2022/03/22 06:14:25;;;;;;;6.32;4.90;;;17.80;46.70;;;;;;5105750;27;45377;-76
2022/03/22 06:16:51;;;;;;;7.47;4.90;;;17.80;46.60;;;;;;5105009;27;47423;-76
2022/03/22 06:19:19;;;;;;;6.40;4.77;;;17.80;46.60;;;;;;5104112;27;45258;-76
2022/03/22 06:21:47;;;;;;;6.88;5.13;;;17.70;46.30;;;;;;5104445;27;45410;-76
2022/03/22 06:24:14;;;;;;;6.88;5.15;;;17.80;46.20;;;;;;5105442;27;45425;-76
2022/03/22 06:26:41;;;;;;;7.13;4.88;;;17.70;46.00;;;;;;5104760;27;45309;-76
2022/03/22 06:29:07;;;;;;;6.53;4.75;;;17.70;45.50;;;;;;5105499;27;45775;-76
2022/03/22 06:31:35;;;;;;;7.05;5.15;;;17.70;46.20;;;;;;5104693;27;45427;-75
2022/03/22 06:34:02;;;;;;;9.20;5.07;;;17.70;45.50;;;;;;5108937;27;45454;-76
2022/03/22 06:36:30;;;;;;;8.13;5.60;;;17.70;45.10;;;;;;5109754;27;45275;-76
2022/03/22 06:38:56;;;;;;;8.80;5.03;;;17.80;45.50;;;;;;5107810;27;45617;-76
2022/03/22 06:41:23;;;;;;;7.65;5.13;;;17.90;45.90;;;;;;5105932;27;45373;-76
2022/03/22 06:43:50;;;;;;;8.27;4.90;;;17.90;46.30;;;;;;5107988;27;45202;-75
2022/03/22 06:46:18;;;;;;;6.07;4.57;;;17.90;46.40;;;;;;5108150;27;45489;-75
2022/03/22 06:48:45;;;;;;;7.45;4.57;;;17.90;46.60;;;;;;5107231;27;45305;-75
2022/03/22 06:51:11;;;;;;;6.00;4.63;;;17.90;46.70;;;;;;5109356;27;45187;-75
2022/03/22 06:53:40;;;;;;;5.47;4.43;;;18.00;46.90;;;;;;5110172;27;45243;-75
2022/03/22 06:56:06;;;;;;;5.90;4.10;;;18.00;47.00;;;;;;5109212;27;45380;-75
2022/03/22 06:58:33;;;;;;;6.38;4.47;;;18.00;47.00;;;;;;5109934;27;45183;-75
2022/03/22 07:01:00;;;;;;;6.53;4.35;;;17.90;47.00;;;;;;5109442;27;45202;-75
2022/03/22 07:03:27;;;;;;;8.52;4.40;;;17.90;47.10;;;;;;5109684;27;45396;-74
2022/03/22 07:05:55;;;;;;;7.18;4.72;;;17.90;47.10;;;;;;5108109;27;46301;-75
2022/03/22 07:08:23;;;;;;;5.68;4.40;;;18.00;47.30;;;;;;5106513;27;45159;-75
2022/03/22 07:13:32;;;;;;;6.57;4.22;;;17.90;47.30;;;;;;5110352;27;45307;-75
2022/03/22 07:15:59;;;;;;;5.85;4.20;;;18.00;47.40;;;;;;5105430;27;46558;-75
2022/03/22 07:18:26;;;;;;;6.18;3.90;;;18.00;47.40;;;;;;5109429;27;45183;-75
2022/03/22 07:20:53;;;;;;;5.53;3.85;;;18.00;47.50;;;;;;5108787;27;45318;-75
2022/03/22 07:23:19;;;;;;;7.38;4.30;;;18.00;47.40;;;;;;5103301;27;45480;-75
2022/03/22 07:25:46;;;;;;;5.35;4.10;;;18.00;47.50;;;;;;5102385;27;47415;-76
2022/03/22 07:28:14;;;;;;;5.30;4.20;;;18.00;47.40;;;;;;5108691;27;45453;-75
2022/03/22 07:30:41;;;;;;;6.40;4.05;;;18.00;47.40;;;;;;5096763;27;45317;-75
2022/03/22 07:33:08;;;;;;;5.13;3.65;;;18.00;47.60;;;;;;5100893;27;45654;-76
2022/03/22 07:35:35;;;;;;;7.85;4.28;;;18.00;47.60;;;;;;5106081;27;46692;-76
2022/03/22 07:38:01;;;;;;;4.38;3.70;;;18.00;48.80;;;;;;5102228;27;45337;-76
2022/03/22 07:40:29;;;;;;;6.97;4.30;;;18.00;47.70;;;;;;5104964;27;45127;-76
2022/03/22 07:42:56;;;;;;;5.93;3.78;;;18.00;47.80;;;;;;5101540;27;45336;-76
2022/03/22 07:45:24;;;;;;;6.53;4.22;;;18.00;48.00;;;;;;5103090;27;45317;-75
2022/03/22 07:47:51;;;;;;;4.75;3.60;;;18.00;47.90;;;;;;5105648;27;45163;-75
2022/03/22 07:53:05;;;;;;;6.22;3.90;;;18.00;47.90;;;;;;5105435;27;45326;-74
2022/03/22 07:55:34;;;;;;;5.47;3.72;;;18.00;47.90;;;;;;5107898;27;45261;-75
2022/03/22 07:58:02;;;;;;;6.05;4.07;;;18.10;47.00;;;;;;5100485;27;45348;-74
2022/03/22 08:00:31;;;;;;;4.82;3.55;;;18.10;48.00;;;;;;5105686;27;46166;-75
2022/03/22 08:03:00;;;;;;;5.53;3.78;;;18.00;47.90;;;;;;5104333;27;45358;-74
2022/03/22 08:05:27;;;;;;;5.35;3.97;;;18.10;48.00;;;;;;5107820;27;48223;-75
2022/03/22 08:07:54;;;;;;;6.45;4.15;;;18.10;47.90;;;;;;5107161;27;45236;-74
2022/03/22 08:10:21;;;;;;;5.93;3.83;;;18.10;47.80;;;;;;5104678;27;45217;-75
2022/03/22 08:12:49;;;;;;;5.13;3.63;;;18.10;47.70;;;;;;5108650;27;45320;-75
2022/03/22 08:15:17;;;;;;;4.95;3.67;;;18.10;47.70;;;;;;5105562;27;45720;-75
2022/03/22 08:17:46;;;;;;;4.95;3.63;;;18.10;47.80;;;;;;5105372;27;45145;-75
2022/03/22 08:20:14;;;;;;;6.55;3.42;;;18.10;47.80;;;;;;5106350;27;45631;-75
2022/03/22 08:22:50;;;;;;;5.60;3.47;;;18.10;47.80;;;;;;5109139;27;45309;-75
2022/03/22 08:25:24;;;;;;;4.90;3.60;;;18.10;47.90;;;;;;5107391;27;45347;-75
2022/03/22 08:27:51;;;;;;;5.03;3.53;;;18.10;47.80;;;;;;5107552;27;45286;-75
2022/03/22 08:30:20;;;;;;;4.85;3.40;;;18.10;47.70;;;;;;5106902;27;45423;-75
2022/03/22 08:32:50;;;;;;;4.53;3.13;;;18.10;47.70;;;;;;5105702;27;45437;-75
2022/03/22 08:35:17;;;;;;;5.15;3.60;;;18.10;47.70;;;;;;5106446;27;45193;-76
2022/03/22 08:37:44;;;;;;;5.80;3.60;;;18.10;47.70;;;;;;5106703;27;45289;-75
2022/03/22 08:40:13;;;;;;;5.50;3.63;;;18.20;47.70;;;;;;5108470;27;45443;-75
2022/03/22 08:42:43;;;;;;;5.05;3.20;;;18.10;47.70;;;;;;5109225;27;45479;-75
2022/03/22 08:45:12;;;;;;;5.50;3.60;;;18.10;47.60;;;;;;5107293;27;46587;-75
2022/03/22 08:47:40;;;;;;;6.13;3.70;;;18.20;47.60;;;;;;5104791;27;45559;-75
2022/03/22 08:50:10;;;;;;;5.75;3.60;;;18.20;47.60;;;;;;5106228;27;45268;-75
2022/03/22 08:52:37;;;;;;;5.70;3.83;;;18.10;47.50;;;;;;5107026;27;45351;-76
2022/03/22 08:55:05;;;;;;;4.97;3.33;;;18.10;47.50;;;;;;5107135;27;45984;-75
2022/03/22 08:57:32;;;;;;;4.50;3.63;;;18.10;47.60;;;;;;5106669;27;45229;-74
2022/03/22 08:59:59;;;;;;;4.82;3.63;;;18.10;47.50;;;;;;5107969;27;45271;-75
2022/03/22 09:02:25;;;;;;;4.72;3.33;;;18.10;47.50;;;;;;5105837;27;45259;-75
2022/03/22 09:07:38;;;;;;;4.75;3.33;;;18.10;47.50;;;;;;5104786;27;45254;-75
2022/03/22 09:10:05;;;;;;;5.38;3.72;;;18.10;47.40;;;;;;5104876;27;45360;-76
2022/03/22 09:12:32;;;;;;;5.03;3.60;;;18.10;47.20;;;;;;5108609;27;45372;-76
2022/03/22 09:14:59;;;;;;;4.35;3.35;;;18.10;47.30;;;;;;5108165;27;46699;-75
2022/03/22 09:17:26;;;;;;;4.68;3.60;;;18.20;47.10;;;;;;5107347;27;45150;-75
2022/03/22 09:19:52;;;;;;;4.82;3.30;;;18.20;47.20;;;;;;5107550;27;45203;-75
2022/03/22 09:22:19;;;;;;;4.43;3.60;;;18.20;47.00;;;;;;5107485;27;45901;-75
2022/03/22 09:24:47;;;;;;;4.38;3.20;;;18.20;47.10;;;;;;5107498;27;47079;-75
2022/03/22 09:27:14;;;;;;;4.47;3.22;;;18.20;47.00;;;;;;5107806;27;45266;-75
2022/03/22 09:29:41;;;;;;;5.97;3.72;;;18.20;47.20;;;;;;5107381;27;45281;-75
2022/03/22 09:32:08;;;;;;;4.15;3.13;;;18.10;47.10;;;;;;5107099;27;45191;-75
2022/03/22 09:34:35;;;;;;;4.63;3.28;;;18.10;47.00;;;;;;5106819;27;47035;-75
2022/03/22 09:37:02;;;;;;;5.78;3.58;;;18.10;47.00;;;;;;5107248;27;45349;-75
2022/03/22 09:39:29;;;;;;;4.97;3.72;;;18.10;47.00;;;;;;5106938;27;45309;-75
2022/03/22 09:41:57;;;;;;;4.20;3.30;;;18.10;47.20;;;;;;5100766;27;45177;-75
2022/03/22 09:44:24;;;;;;;4.78;3.20;;;18.10;47.40;;;;;;5100801;27;46976;-75
2022/03/22 09:46:51;;;;;;;6.13;3.38;;;18.20;47.30;;;;;;5100672;27;45389;-75
2022/03/22 09:49:18;;;;;;;4.53;3.30;;;18.10;47.10;;;;;;5105042;27;45488;-75
2022/03/22 09:51:48;;;;;;;5.78;3.50;;;18.20;47.20;;;;;;5101734;27;45258;-75
2022/03/22 09:54:17;;;;;;;4.75;3.40;;;18.20;47.00;;;;;;5106519;27;46433;-75
2022/03/22 09:56:46;;;;;;;5.15;3.85;;;18.20;47.00;;;;;;5100578;27;45645;-75
2022/03/22 09:59:17;;;;;;;5.05;3.20;;;18.20;47.00;;;;;;5105926;27;45275;-75
2022/03/22 10:01:44;;;;;;;4.80;3.60;;;18.20;47.10;;;;;;5106578;27;45290;-75
2022/03/22 10:04:13;;;;;;;5.60;3.28;;;18.20;46.90;;;;;;5106296;27;46449;-75
2022/03/22 10:06:46;;;;;;;5.80;3.55;;;18.20;46.90;;;;;;5110990;27;45257;-74
2022/03/22 10:09:12;;;;;;;4.40;3.33;;;18.20;46.90;;;;;;5109654;27;45313;-74
2022/03/22 10:11:42;;;;;;;4.63;3.45;;;18.20;47.00;;;;;;5111634;27;45162;-75
2022/03/22 10:14:09;;;;;;;3.97;3.15;;;18.20;46.90;;;;;;5109782;27;46227;-75
2022/03/22 10:16:50;;;;;;;5.32;3.45;;;18.20;46.80;;;;;;5108265;27;45124;-75
2022/03/22 10:19:25;;;;;;;4.43;3.25;;;18.20;46.80;;;;;;5108103;27;45250;-75
2022/03/22 10:21:53;;;;;;;4.60;3.17;;;18.20;47.00;;;;;;5109901;27;45490;-75
2022/03/22 10:24:21;;;;;;;4.20;3.10;;;18.20;47.10;;;;;;5109358;27;47536;-75
2022/03/22 10:26:48;;;;;;;4.45;3.47;;;18.20;47.00;;;;;;5107988;27;45617;-75
2022/03/22 10:29:16;;;;;;;3.90;2.92;;;18.20;47.10;;;;;;5110236;27;45221;-74
2022/03/22 10:31:44;;;;;;;5.07;3.10;;;18.20;46.90;;;;;;5107785;27;45895;-75
2022/03/22 10:34:15;;;;;;;5.07;3.13;;;18.20;47.10;;;;;;5107688;27;47254;-75
2022/03/22 10:36:42;;;;;;;5.32;3.10;;;18.20;47.00;;;;;;5110069;27;45412;-75
2022/03/22 10:39:11;;;;;;;5.35;3.45;;;18.20;47.00;;;;;;5108247;27;45206;-75
2022/03/22 10:41:42;;;;;;;5.35;3.33;;;18.20;46.90;;;;;;5108694;27;45509;-75
2022/03/22 10:44:11;;;;;;;4.03;3.17;;;18.20;46.70;;;;;;5105169;27;45981;-75
2022/03/22 10:46:39;;;;;;;6.40;3.38;;;18.20;46.80;;;;;;5108766;27;45106;-75
2022/03/22 10:49:09;;;;;;;3.55;2.72;;;18.20;46.60;;;;;;5104803;27;45242;-75
2022/03/22 10:51:43;;;;;;;5.30;3.45;;;18.20;46.30;;;;;;5109370;27;45394;-74
2022/03/22 10:54:12;;;;;;;4.32;3.05;;;18.30;46.30;;;;;;5106882;27;45483;-75
2022/03/22 10:56:44;;;;;;;4.97;3.28;;;18.30;46.30;;;;;;5106573;27;45223;-76
2022/03/22 10:59:13;;;;;;;4.03;2.92;;;18.20;46.00;;;;;;5107116;27;45227;-75
2022/03/22 11:01:41;;;;;;;4.15;2.75;;;18.30;46.20;;;;;;5106702;27;45414;-75
2022/03/22 11:04:09;;;;;;;6.40;3.22;;;18.30;46.10;;;;;;5108536;27;45418;-74
2022/03/22 11:06:39;;;;;;;3.90;2.97;;;18.20;45.80;;;;;;5109419;27;45264;-75
2022/03/22 11:09:07;;;;;;;4.68;3.10;;;18.20;45.70;;;;;;5106791;27;45740;-75
2022/03/22 11:11:35;;;;;;;4.50;2.80;;;18.20;46.20;;;;;;5108422;27;45262;-75
2022/03/22 11:14:04;;;;;;;4.18;3.10;;;18.20;46.00;;;;;;5109656;27;46302;-75
2022/03/22 11:16:33;;;;;;;3.92;3.00;;;18.20;45.60;;;;;;5106560;27;45250;-75
2022/03/22 11:19:01;;;;;;;4.65;2.83;;;18.20;45.90;;;;;;5109380;27;45286;-75
2022/03/22 11:21:30;;;;;;;5.00;3.33;;;18.20;46.40;;;;;;5110379;27;45381;-74
2022/03/22 11:24:09;;;;;;;4.30;3.00;;;18.20;45.90;;;;;;5108997;27;45243;-75
2022/03/22 11:26:41;;;;;;;3.30;2.80;;;18.20;45.70;;;;;;5107545;27;45266;-75
2022/03/22 11:29:10;;;;;;;3.97;3.05;;;18.20;45.90;;;;;;5089248;27;45225;-75
2022/03/22 11:31:38;;;;;;;4.72;2.92;;;18.20;45.90;;;;;;5099757;27;46449;-75
2022/03/22 11:34:11;;;;;;;4.22;2.95;;;18.20;45.80;;;;;;5108205;27;45331;-75
2022/03/22 11:36:44;;;;;;;4.40;3.00;;;18.20;45.80;;;;;;5106340;27;45316;-75
2022/03/22 11:39:17;;;;;;;3.72;2.65;;;18.30;45.90;;;;;;5105850;27;45291;-75
2022/03/22 11:44:35;;;;;;;4.70;2.95;;;18.30;45.90;;;;;;5103440;27;45625;-74
2022/03/22 11:47:05;;;;;;;4.93;3.03;;;18.30;45.90;;;;;;5108637;27;45305;-75
2022/03/22 11:49:47;;;;;;;3.85;2.83;;;18.30;45.90;;;;;;5106965;27;45431;-75
2022/03/22 11:52:16;;;;;;;4.70;2.97;;;18.20;45.90;;;;;;5108067;27;45619;-75
2022/03/22 11:54:54;;;;;;;3.67;2.75;;;18.30;45.90;;;;;;5108167;27;46181;-75
2022/03/22 11:57:21;;;;;;;4.22;3.05;;;18.30;45.70;;;;;;5089505;27;45236;-74
2022/03/22 11:59:48;;;;;;;4.38;2.65;;;18.20;45.40;;;;;;5105580;27;45323;-74
2022/03/22 12:02:17;;;;;;;3.70;2.70;;;18.20;45.70;;;;;;5107484;27;45304;-74
2022/03/22 12:04:50;;;;;;;3.72;2.38;;;18.20;45.50;;;;;;5106448;27;45208;-74
2022/03/22 12:07:22;;;;;;;3.22;2.60;;;18.20;45.80;;;;;;5109027;27;45246;-74
2022/03/22 12:09:52;;;;;;;3.22;2.80;;;18.20;45.70;;;;;;5108280;27;45355;-74
2022/03/22 12:12:18;;;;;;;4.72;2.97;;;18.20;45.50;;;;;;5099470;27;45239;-74
2022/03/22 12:14:48;;;;;;;3.97;2.40;;;18.30;45.50;;;;;;5108958;27;47732;-75
2022/03/22 12:17:16;;;;;;;3.00;2.30;;;18.20;45.50;;;;;;5108978;27;45321;-75
2022/03/22 12:19:43;;;;;;;4.35;2.75;;;18.30;45.50;;;;;;5105322;27;45235;-75
2022/03/22 12:22:10;;;;;;;4.35;2.70;;;18.20;45.50;;;;;;5109410;27;45342;-75
2022/03/22 12:24:37;;;;;;;4.13;2.78;;;18.30;45.60;;;;;;5106748;27;48308;-74
2022/03/22 12:27:08;;;;;;;3.60;2.75;;;18.30;45.70;;;;;;5107103;27;45209;-75
2022/03/22 12:29:41;;;;;;;4.05;2.58;;;18.30;45.60;;;;;;5108184;27;45217;-75
2022/03/22 12:32:17;;;;;;;3.63;2.63;;;18.30;45.60;;;;;;5107077;27;45328;-75
2022/03/22 12:34:44;;;;;;;4.00;2.92;;;18.30;45.60;;;;;;5106844;27;46386;-74
2022/03/22 12:37:12;;;;;;;4.60;3.08;;;18.30;45.40;;;;;;5107472;27;45269;-75
2022/03/22 12:39:41;;;;;;;4.10;2.63;;;18.20;45.30;;;;;;5107619;27;45380;-75
2022/03/22 12:42:13;;;;;;;3.92;2.63;;;18.30;45.70;;;;;;5104912;27;45439;-74
2022/03/22 12:44:41;;;;;;;5.15;2.90;;;18.20;45.10;;;;;;5107303;27;45289;-74
2022/03/22 12:47:08;;;;;;;4.22;2.72;;;18.20;45.30;;;;;;5107931;27;45188;-74
2022/03/22 12:49:39;;;;;;;2.78;2.22;;;18.20;45.30;;;;;;5101448;27;45220;-74
2022/03/22 12:52:07;;;;;;;3.60;2.55;;;18.20;45.70;;;;;;5107449;27;45571;-75
2022/03/22 12:54:35;;;;;;;3.65;2.50;;;18.20;45.80;;;;;;5105748;27;47827;-75
2022/03/22 12:57:08;;;;;;;4.53;2.58;;;18.20;45.70;;;;;;5108206;27;45152;-75
2022/03/22 12:59:36;;;;;;;3.63;2.50;;;18.20;45.50;;;;;;5106427;27;45230;-75
2022/03/22 13:02:06;;;;;;;4.10;2.70;;;18.30;45.60;;;;;;5107277;27;45216;-74
2022/03/22 13:04:37;;;;;;;4.57;2.55;;;18.30;45.30;;;;;;5108126;27;45415;-75
2022/03/22 13:07:05;;;;;;;3.60;2.70;;;18.30;45.30;;;;;;5106620;27;45322;-75
2022/03/22 13:12:19;;;;;;;3.22;2.65;;;18.30;45.50;;;;;;5092487;27;45476;-75
2022/03/22 13:15:04;;;;;;;4.43;2.75;;;18.30;45.20;;;;;;5108588;27;46017;-74
2022/03/22 13:17:32;;;;;;;3.95;2.63;;;18.30;45.30;;;;;;5099484;27;45170;-74
2022/03/22 13:19:59;;;;;;;3.60;2.90;;;18.30;45.40;;;;;;5104125;27;45323;-74
2022/03/22 13:22:27;;;;;;;4.30;2.42;;;18.30;45.40;;;;;;5108636;27;45236;-74
2022/03/22 13:25:05;;;;;;;4.90;2.53;;;18.30;45.40;;;;;;5107885;27;45468;-74
2022/03/22 13:27:32;;;;;;;3.47;2.30;;;18.30;45.40;;;;;;5105374;27;45225;-74